Time;durP1;ratioP1;P1;durP2;ratioP2;P2;SDS_P1;SDS_P2;PMS_P1;PMS_P2;Temp;Humidity;BMP_temperature;BMP_pressure;BME280_temperature;BME280_humidity;BME280_pressure;Samples;Min_cycle;Max_cycle;Signal;HPM_P1;HPM_P2
2023/08/31 00:08:13;;;;;;;18.3;12.8;;;;;;;16.13;88.75;;;;;
2023/08/31 00:18:16;;;;;;;18.3;12.8;;;;;;;16.21;88.54;;;;;
2023/08/31 00:29:16;;;;;;;13.4;11;;;;;;;16.04;89.14;;;;;
2023/08/31 00:40:14;;;;;;;13.4;11;;;;;;;16.17;88.91;;;;;
2023/08/31 00:51:13;;;;;;;18.1;13.8;;;;;;;16.18;88.59;;;;;
2023/08/31 01:02:13;;;;;;;18.1;13.8;;;;;;;16.16;88.63;;;;;
2023/08/31 01:13:13;;;;;;;18.1;13.8;;;;;;;16.08;88.52;;;;;
2023/08/31 01:23:13;;;;;;;16.8;13.3;;;;;;;16.04;88.56;;;;;
2023/08/31 01:34:13;;;;;;;16.8;13.3;;;;;;;16.07;88.42;;;;;
2023/08/31 01:44:14;;;;;;;16.8;13.3;;;;;;;16.09;88.5;;;;;
2023/08/31 01:55:15;;;;;;;23.1;13.8;;;;;;;16.11;88.56;;;;;
2023/08/31 02:05:14;;;;;;;23.1;13.8;;;;;;;16.06;88.22;;;;;
2023/08/31 02:15:14;;;;;;;23.1;13.8;;;;;;;15.94;88.45;;;;;
2023/08/31 02:26:14;;;;;;;19.5;15.2;;;;;;;15.86;88.76;;;;;
2023/08/31 02:37:13;;;;;;;19.5;15.2;;;;;;;15.81;88.9;;;;;
2023/08/31 02:47:14;;;;;;;19.5;15.2;;;;;;;15.91;89.02;;;;;
2023/08/31 02:58:14;;;;;;;17.5;14.5;;;;;;;15.89;88.74;;;;;
2023/08/31 03:08:13;;;;;;;17.5;14.5;;;;;;;15.94;88.54;;;;;
2023/08/31 03:19:13;;;;;;;17.5;14.5;;;;;;;15.89;88.72;;;;;
2023/08/31 03:30:14;;;;;;;16.6;13.9;;;;;;;15.81;89.35;;;;;
2023/08/31 03:40:14;;;;;;;16.6;13.9;;;;;;;15.85;89.31;;;;;
2023/08/31 03:51:13;;;;;;;18.8;13.9;;;;;;;15.86;89.04;;;;;
2023/08/31 04:01:14;;;;;;;18.8;13.9;;;;;;;15.95;88.91;;;;;
2023/08/31 04:12:13;;;;;;;18.8;13.9;;;;;;;16.08;88.69;;;;;
2023/08/31 04:22:14;;;;;;;15.4;11.6;;;;;;;15.91;88.94;;;;;
2023/08/31 04:33:14;;;;;;;15.4;11.6;;;;;;;16;88.5;;;;;
2023/08/31 04:44:14;;;;;;;15.4;11.6;;;;;;;15.95;88.65;;;;;
2023/08/31 04:54:14;;;;;;;17.4;11.7;;;;;;;16.13;88.63;;;;;
2023/08/31 05:05:14;;;;;;;17.4;11.7;;;;;;;16.12;88.17;;;;;
2023/08/31 05:16:14;;;;;;;17.4;11.7;;;;;;;16.28;87.55;;;;;
2023/08/31 05:27:13;;;;;;;16.2;10.8;;;;;;;16.38;87.39;;;;;
2023/08/31 05:38:14;;;;;;;16.2;10.8;;;;;;;16.72;86.69;;;;;
2023/08/31 05:48:14;;;;;;;16.2;10.8;;;;;;;16.89;85.58;;;;;
2023/08/31 05:59:13;;;;;;;11.8;7.7;;;;;;;16.98;84.9;;;;;
2023/08/31 06:09:14;;;;;;;11.8;7.7;;;;;;;17.21;84.98;;;;;
2023/08/31 06:20:14;;;;;;;11.8;7.7;;;;;;;17.63;82.77;;;;;
2023/08/31 06:30:16;;;;;;;10;6.4;;;;;;;17.77;82.11;;;;;
2023/08/31 06:41:15;;;;;;;10;6.4;;;;;;;17.9;81.59;;;;;
2023/08/31 06:51:14;;;;;;;12.6;4.9;;;;;;;18.32;79.72;;;;;
2023/08/31 07:01:14;;;;;;;12.6;4.9;;;;;;;18.56;77.92;;;;;
2023/08/31 07:11:14;;;;;;;12.6;4.9;;;;;;;18.99;78;;;;;
2023/08/31 07:21:14;;;;;;;5.6;2.9;;;;;;;19.09;76.11;;;;;
2023/08/31 07:32:14;;;;;;;5.6;2.9;;;;;;;19.35;75.53;;;;;
2023/08/31 07:42:14;;;;;;;5.6;2.9;;;;;;;19.73;70.51;;;;;
2023/08/31 07:53:14;;;;;;;3.7;1.7;;;;;;;20.12;72.07;;;;;
2023/08/31 08:03:14;;;;;;;3.7;1.7;;;;;;;20.35;71.06;;;;;
2023/08/31 08:14:15;;;;;;;3.7;1.7;;;;;;;20.52;69.58;;;;;
2023/08/31 08:25:14;;;;;;;3.8;1.8;;;;;;;20.51;69.68;;;;;
2023/08/31 08:35:14;;;;;;;3.8;1.8;;;;;;;20.4;69.46;;;;;
2023/08/31 08:45:15;;;;;;;3.8;1.8;;;;;;;20.31;70.36;;;;;
2023/08/31 08:56:14;;;;;;;3.7;1.7;;;;;;;20.62;68.97;;;;;
2023/08/31 09:06:14;;;;;;;3.7;1.7;;;;;;;20.93;68.9;;;;;
2023/08/31 09:16:14;;;;;;;3.7;1.7;;;;;;;21.21;67.35;;;;;
2023/08/31 09:26:14;;;;;;;3.4;1.5;;;;;;;21.2;67.51;;;;;
2023/08/31 09:37:14;;;;;;;3.4;1.5;;;;;;;21.52;66.03;;;;;
2023/08/31 09:48:14;;;;;;;3.4;1.5;;;;;;;21.48;66.33;;;;;
2023/08/31 09:58:14;;;;;;;4;1.5;;;;;;;21.28;64.91;;;;;
2023/08/31 10:09:14;;;;;;;4;1.5;;;;;;;21.96;64.63;;;;;
2023/08/31 10:20:14;;;;;;;4;1.5;;;;;;;22.21;63.74;;;;;
2023/08/31 10:30:14;;;;;;;4.1;1.9;;;;;;;22.29;63.42;;;;;
2023/08/31 10:41:15;;;;;;;4.1;1.9;;;;;;;22.71;62.43;;;;;
2023/08/31 10:51:14;;;;;;;4.5;2.4;;;;;;;22.56;59.79;;;;;
2023/08/31 11:02:14;;;;;;;4.5;2.4;;;;;;;22.7;58.34;;;;;
2023/08/31 11:12:14;;;;;;;4.5;2.4;;;;;;;23.01;58.83;;;;;
2023/08/31 11:23:15;;;;;;;3.1;1.5;;;;;;;22.58;58.18;;;;;
2023/08/31 11:33:14;;;;;;;3.1;1.5;;;;;;;22.47;58.53;;;;;
2023/08/31 11:44:15;;;;;;;3.1;1.5;;;;;;;22.58;60.45;;;;;
2023/08/31 11:55:14;;;;;;;4.3;2.1;;;;;;;22.34;58.98;;;;;
2023/08/31 12:06:14;;;;;;;4.3;2.1;;;;;;;22.53;60.8;;;;;
2023/08/31 12:17:14;;;;;;;4.3;2.1;;;;;;;23.02;60.97;;;;;
2023/08/31 12:27:14;;;;;;;5;2.5;;;;;;;23.72;57.47;;;;;
2023/08/31 12:38:14;;;;;;;5;2.5;;;;;;;23.8;51.77;;;;;
2023/08/31 12:49:14;;;;;;;5;2.5;;;;;;;23.71;50.82;;;;;
2023/08/31 12:59:14;;;;;;;4.4;2.2;;;;;;;23.66;52.14;;;;;
2023/08/31 13:10:14;;;;;;;4.4;2.2;;;;;;;23.61;52.08;;;;;
2023/08/31 13:20:14;;;;;;;4.4;2.2;;;;;;;23.44;50.96;;;;;
2023/08/31 13:30:14;;;;;;;4.3;2.5;;;;;;;23.37;49.04;;;;;
2023/08/31 13:41:14;;;;;;;4.3;2.5;;;;;;;23.4;50.59;;;;;
2023/08/31 13:52:14;;;;;;;4.3;2.5;;;;;;;23.94;51.99;;;;;
2023/08/31 14:03:14;;;;;;;;;;;;;;;;;;;;;
2023/08/31 14:13:14;;;;;;;;;;;;;;;;;;;;;
2023/08/31 14:24:14;;;;;;;;;;;;;;;;;;;;;
2023/08/31 14:35:14;;;;;;;;;;;;;;;;;;;;;
2023/08/31 14:45:14;;;;;;;7;3;;;;;;;20.56;64.84;;;;;
2023/08/31 14:55:14;;;;;;;7;3;;;;;;;19.25;69.65;;;;;
2023/08/31 15:05:14;;;;;;;7;3;;;;;;;18.54;74.63;;;;;
2023/08/31 15:16:14;;;;;;;6.1;3.1;;;;;;;18.25;78.23;;;;;
2023/08/31 15:27:14;;;;;;;6.1;3.1;;;;;;;18.08;78.47;;;;;
2023/08/31 15:38:14;;;;;;;6.1;3.1;;;;;;;17.93;79.76;;;;;
2023/08/31 15:48:14;;;;;;;5.7;2.7;;;;;;;17.82;79.8;;;;;
2023/08/31 15:58:14;;;;;;;5.7;2.7;;;;;;;17.79;80.21;;;;;
2023/08/31 16:09:14;;;;;;;5.7;2.7;;;;;;;17.86;80.38;;;;;
2023/08/31 16:20:14;;;;;;;3.9;1.8;;;;;;;18.23;78.16;;;;;
2023/08/31 16:30:15;;;;;;;3.9;1.8;;;;;;;18.28;78.14;;;;;
2023/08/31 16:40:14;;;;;;;3.9;1.8;;;;;;;18.72;76.89;;;;;
2023/08/31 16:50:14;;;;;;;4.9;2.1;;;;;;;18.63;77.51;;;;;
2023/08/31 17:00:14;;;;;;;4.9;2.1;;;;;;;18.19;79.09;;;;;
2023/08/31 17:10:14;;;;;;;4.9;2.1;;;;;;;17.89;78.59;;;;;
2023/08/31 17:21:14;;;;;;;4.3;2.2;;;;;;;17.27;80.63;;;;;
2023/08/31 17:31:14;;;;;;;4.3;2.2;;;;;;;16.6;83.68;;;;;
2023/08/31 17:42:14;;;;;;;5.4;3.4;;;;;;;16.19;84.84;;;;;
2023/08/31 17:52:14;;;;;;;5.4;3.4;;;;;;;15.81;85.89;;;;;
2023/08/31 18:03:14;;;;;;;5.4;3.4;;;;;;;15.5;86.59;;;;;
2023/08/31 18:14:15;;;;;;;4.8;2.7;;;;;;;15.4;86.32;;;;;
2023/08/31 18:24:14;;;;;;;4.8;2.7;;;;;;;15.31;85.68;;;;;
2023/08/31 18:34:14;;;;;;;4.8;2.7;;;;;;;15.43;84.79;;;;;
2023/08/31 18:45:17;;;;;;;5.3;2.8;;;;;;;15.45;84.84;;;;;
2023/08/31 18:56:14;;;;;;;5.3;2.8;;;;;;;15.53;83.47;;;;;
2023/08/31 19:06:14;;;;;;;5.3;2.8;;;;;;;15.59;82.27;;;;;
2023/08/31 19:17:15;;;;;;;5.2;2.8;;;;;;;15.56;82.06;;;;;
2023/08/31 19:27:14;;;;;;;5.2;2.8;;;;;;;15.57;81.83;;;;;
2023/08/31 19:38:16;;;;;;;5.2;2.8;;;;;;;15.53;82.18;;;;;
2023/08/31 19:48:15;;;;;;;5.4;2.8;;;;;;;15.32;82.26;;;;;
2023/08/31 19:59:14;;;;;;;5.4;2.8;;;;;;;15.11;82.79;;;;;
2023/08/31 20:09:14;;;;;;;5.4;2.8;;;;;;;14.88;83.77;;;;;
2023/08/31 20:20:17;;;;;;;5.7;2.9;;;;;;;14.75;83.28;;;;;
2023/08/31 20:30:15;;;;;;;5.7;2.9;;;;;;;14.56;83.65;;;;;
2023/08/31 20:41:14;;;;;;;5;2.5;;;;;;;14.42;84.76;;;;;
2023/08/31 20:51:16;;;;;;;5;2.5;;;;;;;14.4;84.51;;;;;
2023/08/31 21:01:14;;;;;;;5;2.5;;;;;;;14.16;84.48;;;;;
2023/08/31 21:11:14;;;;;;;4.8;2.9;;;;;;;13.97;84.35;;;;;
2023/08/31 21:22:14;;;;;;;4.8;2.9;;;;;;;13.64;84.96;;;;;
2023/08/31 21:33:14;;;;;;;4.8;2.9;;;;;;;13.42;85.53;;;;;
2023/08/31 21:44:14;;;;;;;4.6;2.2;;;;;;;13.31;86.63;;;;;
2023/08/31 21:54:14;;;;;;;4.6;2.2;;;;;;;13.51;88.62;;;;;
2023/08/31 22:04:16;;;;;;;4.6;2.2;;;;;;;13.5;87.37;;;;;
2023/08/31 22:15:15;;;;;;;4.9;2.7;;;;;;;13.35;86.66;;;;;
2023/08/31 22:26:14;;;;;;;4.9;2.7;;;;;;;13.13;86.59;;;;;
2023/08/31 22:37:14;;;;;;;4.9;2.7;;;;;;;13.06;87.2;;;;;
2023/08/31 22:47:15;;;;;;;3.8;1.8;;;;;;;12.94;86.97;;;;;
2023/08/31 22:58:15;;;;;;;3.8;1.8;;;;;;;12.83;86.9;;;;;
2023/08/31 23:08:14;;;;;;;3.8;1.8;;;;;;;12.68;87.14;;;;;
2023/08/31 23:19:14;;;;;;;3.5;2;;;;;;;12.7;87.58;;;;;
2023/08/31 23:29:14;;;;;;;3.5;2;;;;;;;12.58;88.02;;;;;
2023/08/31 23:39:15;;;;;;;3.5;2;;;;;;;12.52;88.58;;;;;
2023/08/31 23:50:15;;;;;;;6.2;2.7;;;;;;;12.45;88.71;;;;;
